Terminal Aerodrome Forecast
Issued by NWS

Home | Current Version | Previous Version | Text Only | Print | Product List | Glossary On
Versions: 1 2 3 4 5 6 7 8 9 10 11 12 13 14 15 16 17 18
731
FTUS45 KREV 232004 AAA
TAFMMH
TAF AMD
KMMH 232004Z 2320/2418 26008KT 6SM -SHSN SCT025 BKN050
     FM232200 28010KT P6SM FEW030 BKN060
     FM240300 31005KT P6SM SCT060 BKN150=

USA.gov is the U.S. government's official web portal to all federal, state and local government web resources and services.